Terminal Aerodrome Forecast
Issued by NWS

Home | Current Version | Previous Version | Text Only | Print | Product List | Glossary On
Versions: 1 2 3 4 5 6 7 8 9 10 11 12 13
000
FTPA31 PHFO 230539
TAFHOG
TAF
PHOG 230539Z 2306/2406 05015KT P6SM FEW030 SCT060
     FM231200 05010KT P6SM FEW030 SCT060
     FM232000 06019G25KT P6SM FEW030 SCT060
     FM240500 06015KT P6SM FEW030 SCT060=

USA.gov is the U.S. government's official web portal to all federal, state and local government web resources and services.